Time;durP1;ratioP1;P1;durP2;ratioP2;P2;SDS_P1;SDS_P2;PMS_P1;PMS_P2;Temp;Humidity;BMP_temperature;BMP_pressure;BME280_temperature;BME280_humidity;BME280_pressure;Samples;Min_cycle;Max_cycle;Signal;HPM_P1;HPM_P2
2021/01/27 00:02:19;;;;;;;40.25;21.08;;;0.10;2201.60;;;;;;5085353;28;20027;-66
2021/01/27 00:04:45;;;;;;;44.58;22.20;;;0.10;2201.60;;;;;;5082968;28;20060;-66
2021/01/27 00:07:11;;;;;;;43.85;22.42;;;0.10;2201.60;;;;;;5084603;28;20358;-65
2021/01/27 00:09:37;;;;;;;44.70;24.13;;;0.00;2201.60;;;;;;5085696;28;20087;-65
2021/01/27 00:12:03;;;;;;;40.45;22.08;;;0.00;2201.60;;;;;;5096357;28;20032;-65
2021/01/27 00:14:29;;;;;;;46.15;22.48;;;0.00;2201.60;;;;;;5095596;28;20020;-66
2021/01/27 00:16:55;;;;;;;45.75;23.55;;;12.90;2201.60;;;;;;5087096;28;20036;-66
2021/01/27 00:19:20;;;;;;;42.90;21.92;;;12.90;2201.60;;;;;;5084557;28;20028;-66
2021/01/27 00:21:46;;;;;;;48.35;23.88;;;12.90;2201.60;;;;;;5083586;28;20028;-66
2021/01/27 00:24:12;;;;;;;40.35;21.48;;;12.90;2201.60;;;;;;5083565;28;20039;-65
2021/01/27 00:26:38;;;;;;;42.45;20.42;;;13.00;2201.60;;;;;;5085637;28;20019;-66
2021/01/27 00:29:03;;;;;;;37.53;21.58;;;12.90;2201.60;;;;;;5079806;28;20099;-65
2021/01/27 00:31:29;;;;;;;35.53;20.70;;;13.00;2201.60;;;;;;5075748;28;20142;-65
2021/01/27 00:33:55;;;;;;;41.08;19.75;;;13.00;2201.60;;;;;;5075537;28;20028;-66
2021/01/27 00:36:21;;;;;;;38.03;18.95;;;13.10;2201.60;;;;;;5079179;28;20027;-65
2021/01/27 00:38:46;;;;;;;37.67;20.55;;;13.10;2201.60;;;;;;5084936;28;20020;-65
2021/01/27 00:41:12;;;;;;;37.80;17.52;;;13.20;2201.60;;;;;;5085519;28;20028;-66
2021/01/27 00:43:38;;;;;;;35.42;18.58;;;13.20;2201.60;;;;;;5084044;28;20028;-66
2021/01/27 00:46:04;;;;;;;34.78;17.92;;;13.20;2201.60;;;;;;5095156;28;20024;-64
2021/01/27 00:48:30;;;;;;;32.90;18.02;;;13.10;2201.60;;;;;;5085218;28;20031;-65
2021/01/27 00:50:56;;;;;;;34.17;17.58;;;13.10;2201.60;;;;;;5083582;28;20385;-63
2021/01/27 00:53:22;;;;;;;34.28;18.02;;;13.10;2201.60;;;;;;5084169;28;20453;-64
2021/01/27 00:55:48;;;;;;;32.78;16.73;;;13.10;2201.60;;;;;;5085571;28;20020;-64
2021/01/27 00:58:14;;;;;;;33.47;17.30;;;13.10;2201.60;;;;;;5083648;28;20059;-65
2021/01/27 01:00:41;;;;;;;38.38;19.33;;;13.10;2201.60;;;;;;5084791;28;20362;-64
2021/01/27 01:03:09;;;;;;;36.78;18.50;;;13.10;2201.60;;;;;;5080133;28;20032;-64
2021/01/27 01:05:37;;;;;;;34.40;17.80;;;13.00;2201.60;;;;;;5075067;28;20047;-64
2021/01/27 01:08:04;;;;;;;36.97;18.02;;;13.00;2201.60;;;;;;5082726;28;20028;-63
2021/01/27 01:10:36;;;;;;;33.25;16.92;;;13.00;2201.60;;;;;;5083046;28;20074;-64
2021/01/27 01:13:02;;;;;;;36.03;17.58;;;13.00;2201.60;;;;;;5083995;28;20395;-64
2021/01/27 01:15:29;;;;;;;31.60;17.25;;;13.00;2201.60;;;;;;5084683;28;20035;-64
2021/01/27 01:17:55;;;;;;;29.45;16.15;;;13.10;2201.60;;;;;;5083153;28;20055;-65
2021/01/27 01:20:22;;;;;;;33.90;16.55;;;13.00;2201.60;;;;;;5085450;28;20051;-64
2021/01/27 01:22:54;;;;;;;35.92;17.48;;;13.10;2201.60;;;;;;5077258;28;20112;-64
2021/01/27 01:25:22;;;;;;;30.77;16.00;;;13.10;2201.60;;;;;;5074066;28;20334;-64
2021/01/27 01:27:48;;;;;;;31.60;15.45;;;13.00;2201.60;;;;;;5074728;28;20083;-64
2021/01/27 01:30:37;;;;;;;30.05;16.60;;;13.10;2201.60;;;;;;5074899;28;20090;-64
2021/01/27 01:33:09;;;;;;;30.92;16.38;;;13.00;2201.60;;;;;;5074643;28;20033;-64
2021/01/27 01:35:36;;;;;;;29.65;14.93;;;13.10;2201.60;;;;;;5075012;28;20036;-64
2021/01/27 01:38:02;;;;;;;23.92;13.98;;;13.10;2201.60;;;;;;5074815;28;20016;-63
2021/01/27 01:40:31;;;;;;;28.27;15.68;;;13.20;2201.60;;;;;;5074307;28;20078;-64
2021/01/27 01:43:16;;;;;;;29.42;15.70;;;13.20;2201.60;;;;;;5074714;28;20066;-64
2021/01/27 01:45:43;;;;;;;31.10;15.38;;;13.20;2201.60;;;;;;5074397;28;20086;-64
2021/01/27 01:48:18;;;;;;;33.03;16.50;;;13.20;2201.60;;;;;;5074026;28;20032;-65
2021/01/27 01:50:47;;;;;;;28.15;15.65;;;13.20;2201.60;;;;;;5081287;28;20028;-64
2021/01/27 01:53:13;;;;;;;30.67;15.82;;;13.30;2201.60;;;;;;5097067;28;20036;-64
2021/01/27 01:55:41;;;;;;;28.25;15.32;;;13.40;2201.60;;;;;;5097363;28;20432;-64
2021/01/27 01:58:07;;;;;;;28.30;15.57;;;13.50;2201.60;;;;;;5097016;28;20433;-64
2021/01/27 02:00:33;;;;;;;34.08;16.83;;;13.60;2201.60;;;;;;5096456;28;20470;-64
2021/01/27 02:03:01;;;;;;;26.40;15.73;;;13.70;2201.60;;;;;;5096952;28;20335;-64
2021/01/27 02:05:26;;;;;;;30.02;16.05;;;13.70;2201.60;;;;;;5096629;28;20048;-64
2021/01/27 02:07:55;;;;;;;28.85;16.48;;;38.40;2201.60;;;;;;5096734;28;20039;-64
2021/01/27 02:10:21;;;;;;;31.23;16.02;;;38.50;2201.60;;;;;;5096394;28;20371;-64
2021/01/27 02:13:23;;;;;;;27.45;16.15;;;38.60;2201.60;;;;;;5096800;28;20355;-64
2021/01/27 02:15:57;;;;;;;27.45;15.02;;;38.60;2201.60;;;;;;5097201;28;20024;-64
2021/01/27 02:18:34;;;;;;;28.65;14.85;;;38.50;2201.60;;;;;;5097145;28;20032;-64
2021/01/27 02:21:24;;;;;;;29.40;14.32;;;38.40;2201.60;;;;;;5096571;28;20028;-63
2021/01/27 02:24:27;;;;;;;33.20;15.88;;;38.40;2201.60;;;;;;5096281;28;20337;-64
2021/01/27 02:27:05;;;;;;;25.85;14.43;;;38.40;2201.60;;;;;;5097067;28;20113;-64
2021/01/27 02:29:52;;;;;;;27.40;14.25;;;38.40;2201.60;;;;;;5096843;28;20341;-63
2021/01/27 02:32:42;;;;;;;28.48;15.00;;;38.50;2201.60;;;;;;5096712;28;20414;-64
2021/01/27 02:35:38;;;;;;;25.48;13.57;;;38.50;2201.60;;;;;;5096454;28;20020;-63
2021/01/27 02:38:13;;;;;;;28.33;15.07;;;38.40;2201.60;;;;;;5098537;28;20020;-63
2021/01/27 02:40:58;;;;;;;28.15;15.20;;;38.40;2201.60;;;;;;5100247;28;20434;-64
2021/01/27 02:43:42;;;;;;;28.52;14.98;;;13.70;2201.60;;;;;;5100295;28;20077;-64
2021/01/27 02:46:34;;;;;;;31.88;15.98;;;38.40;2201.60;;;;;;5100488;28;20020;-64
2021/01/27 02:49:23;;;;;;;29.88;15.60;;;38.40;2201.60;;;;;;5099905;28;20024;-63
2021/01/27 02:51:56;;;;;;;;;;;38.40;2201.60;;;;;;5101033;28;20035;-64
2021/01/27 02:54:31;;;;;;;29.45;16.85;;;38.50;2201.60;;;;;;5099478;28;19908;-64
2021/01/27 02:57:28;;;;;;;31.08;16.73;;;38.50;2201.60;;;;;;5099984;28;20024;-64
2021/01/27 03:00:03;;;;;;;31.73;16.15;;;38.50;2201.60;;;;;;5099977;28;20409;-64
2021/01/27 03:02:37;;;;;;;30.17;16.38;;;38.50;2201.60;;;;;;5099245;28;20032;-63
2021/01/27 03:05:29;;;;;;;29.35;15.23;;;38.50;2201.60;;;;;;5099667;28;20131;-64
2021/01/27 03:08:01;;;;;;;29.40;17.05;;;38.50;2201.60;;;;;;5100002;28;20016;-64
2021/01/27 03:10:41;;;;;;;30.70;15.05;;;38.50;2201.60;;;;;;5099491;28;20070;-63
2021/01/27 03:13:09;;;;;;;32.40;15.25;;;38.40;2201.60;;;;;;5099593;28;20382;-63
2021/01/27 03:15:37;;;;;;;26.55;15.63;;;38.50;2201.60;;;;;;5099320;28;20031;-64
2021/01/27 03:18:05;;;;;;;26.83;15.45;;;38.50;2201.60;;;;;;5098704;28;20420;-63
2021/01/27 03:20:35;;;;;;;27.85;15.85;;;38.50;2201.60;;;;;;5099539;28;20032;-64
2021/01/27 03:23:13;;;;;;;25.17;15.10;;;38.50;2201.60;;;;;;5099463;28;20426;-63
2021/01/27 03:25:58;;;;;;;26.98;15.25;;;38.60;2201.60;;;;;;5099153;28;20153;-63
2021/01/27 03:28:32;;;;;;;30.55;16.30;;;38.50;2201.60;;;;;;5099074;28;20028;-63
2021/01/27 03:30:58;;;;;;;26.20;14.82;;;38.60;2201.60;;;;;;5099117;28;20024;-63
2021/01/27 03:33:32;;;;;;;29.27;15.48;;;38.60;2201.60;;;;;;5099503;28;20039;-64
2021/01/27 03:36:03;;;;;;;29.65;15.07;;;38.60;2201.60;;;;;;5098990;28;20111;-64
2021/01/27 03:38:32;;;;;;;30.17;15.35;;;38.70;2201.60;;;;;;5099182;28;20055;-63
2021/01/27 03:41:36;;;;;;;26.30;15.13;;;38.70;2201.60;;;;;;5098833;28;20024;-63
2021/01/27 03:44:11;;;;;;;27.27;15.35;;;38.70;2201.60;;;;;;5099068;28;20032;-63
2021/01/27 03:47:01;;;;;;;26.17;15.00;;;38.60;2201.60;;;;;;5098216;28;20405;-62
2021/01/27 03:49:42;;;;;;;26.55;15.40;;;38.50;2201.60;;;;;;5098431;28;20074;-63
2021/01/27 03:52:14;;;;;;;25.58;14.30;;;38.50;2201.60;;;;;;5098622;28;20069;-63
2021/01/27 03:54:48;;;;;;;27.23;15.05;;;38.40;2201.60;;;;;;5099191;28;20024;-63
2021/01/27 03:57:20;;;;;;;25.08;13.40;;;38.40;2201.60;;;;;;5098894;28;20024;-63
2021/01/27 03:59:46;;;;;;;26.02;14.02;;;38.40;2201.60;;;;;;5098834;28;20131;-63
2021/01/27 04:02:15;;;;;;;27.42;14.55;;;13.70;2201.60;;;;;;5098698;28;20043;-63
2021/01/27 04:04:41;;;;;;;;;;;13.70;2201.60;;;;;;5098839;28;20048;-64
2021/01/27 04:07:07;;;;;;;27.70;14.80;;;13.70;2201.60;;;;;;5097817;28;20225;-63
2021/01/27 04:09:32;;;;;;;26.00;14.40;;;13.70;2201.60;;;;;;5098211;28;20028;-64
2021/01/27 04:11:58;;;;;;;25.20;14.82;;;13.60;2201.60;;;;;;5098133;28;20421;-63
2021/01/27 04:14:24;;;;;;;28.25;14.25;;;13.50;2201.60;;;;;;5095676;28;20434;-63
2021/01/27 04:16:50;;;;;;;27.20;16.42;;;13.50;2201.60;;;;;;5087142;28;20073;-63
2021/01/27 04:19:15;;;;;;;32.08;15.48;;;13.40;2201.60;;;;;;5098700;28;20038;-63
2021/01/27 04:21:42;;;;;;;25.52;14.57;;;13.30;2201.60;;;;;;5098093;28;20028;-64
2021/01/27 04:24:08;;;;;;;24.92;14.45;;;13.30;2201.60;;;;;;5098341;28;20028;-64
2021/01/27 04:26:35;;;;;;;25.85;13.75;;;13.40;2201.60;;;;;;5098236;28;20030;-64
2021/01/27 04:29:02;;;;;;;26.35;14.48;;;13.30;2201.60;;;;;;5098467;28;20311;-64
2021/01/27 04:31:27;;;;;;;24.48;13.70;;;13.30;2201.60;;;;;;5098052;28;20030;-64
2021/01/27 04:33:53;;;;;;;21.90;12.80;;;13.30;2201.60;;;;;;5098136;28;20364;-63
2021/01/27 04:36:19;;;;;;;26.00;13.40;;;13.20;2201.60;;;;;;5097861;28;20020;-64
2021/01/27 04:38:45;;;;;;;23.63;13.98;;;13.20;2201.60;;;;;;5084891;28;20052;-63
2021/01/27 04:41:11;;;;;;;24.48;14.85;;;13.20;2201.60;;;;;;5079379;28;20028;-64
2021/01/27 04:43:40;;;;;;;23.60;12.90;;;13.20;2201.60;;;;;;5077410;28;20048;-64
2021/01/27 04:46:28;;;;;;;24.13;14.75;;;13.10;2201.60;;;;;;5077254;28;20024;-64
2021/01/27 04:49:15;;;;;;;22.38;13.77;;;13.10;2201.60;;;;;;5095929;28;20420;-64
2021/01/27 04:52:15;;;;;;;27.13;14.65;;;13.10;2201.60;;;;;;5098101;28;20147;-64
2021/01/27 04:54:49;;;;;;;25.45;14.23;;;13.10;2201.60;;;;;;5089759;28;20425;-64
2021/01/27 04:57:46;;;;;;;24.73;14.55;;;13.20;2201.60;;;;;;5094473;28;20028;-64
2021/01/27 05:00:24;;;;;;;26.98;14.80;;;13.10;2201.60;;;;;;5088883;28;20024;-64
2021/01/27 05:03:08;;;;;;;19.40;11.83;;;13.20;2201.60;;;;;;5097731;28;20085;-64
2021/01/27 05:05:37;;;;;;;25.65;14.82;;;13.10;2201.60;;;;;;5097482;28;20052;-65
2021/01/27 05:08:27;;;;;;;34.35;16.83;;;13.20;2201.60;;;;;;5091583;28;20030;-63
2021/01/27 05:10:58;;;;;;;28.13;15.18;;;13.20;2201.60;;;;;;5080068;28;20080;-65
2021/01/27 05:13:32;;;;;;;29.83;15.68;;;13.20;2201.60;;;;;;5087367;28;20037;-65
2021/01/27 05:16:11;;;;;;;28.70;16.42;;;13.10;2201.60;;;;;;5092218;28;20020;-66
2021/01/27 05:18:37;;;;;;;29.60;15.32;;;13.10;2201.60;;;;;;5096306;28;20031;-64
2021/01/27 05:21:05;;;;;;;32.97;15.90;;;13.00;2201.60;;;;;;5077402;28;20032;-66
2021/01/27 05:23:32;;;;;;;27.85;15.30;;;13.00;2201.60;;;;;;5076875;28;20330;-65
2021/01/27 05:26:09;;;;;;;27.15;15.00;;;13.00;2201.60;;;;;;5088972;28;20032;-65
2021/01/27 05:28:41;;;;;;;26.15;15.18;;;13.00;2201.60;;;;;;5097405;28;20032;-66
2021/01/27 05:31:07;;;;;;;28.00;16.17;;;12.90;2201.60;;;;;;5097325;28;20024;-66
2021/01/27 05:33:51;;;;;;;32.42;16.95;;;12.90;2201.60;;;;;;5096882;28;20035;-66
2021/01/27 05:36:27;;;;;;;27.92;15.65;;;0.00;2201.60;;;;;;5097556;28;20078;-65
2021/01/27 05:39:15;;;;;;;28.23;16.08;;;0.00;2201.60;;;;;;5097567;28;20077;-65
2021/01/27 05:41:42;;;;;;;30.77;15.95;;;0.10;2201.60;;;;;;5097267;28;20078;-66
2021/01/27 05:44:13;;;;;;;26.17;15.50;;;0.10;2201.60;;;;;;5083722;28;20060;-66
2021/01/27 05:46:40;;;;;;;26.10;15.85;;;0.20;2201.60;;;;;;5076978;28;20028;-65
2021/01/27 05:49:25;;;;;;;31.80;17.15;;;0.10;2201.60;;;;;;5077219;28;20027;-66
2021/01/27 05:51:51;;;;;;;28.75;15.93;;;0.00;2201.60;;;;;;5076881;28;20054;-65
2021/01/27 05:54:27;;;;;;;29.58;16.65;;;0.00;2201.60;;;;;;5081500;28;20093;-65
2021/01/27 05:56:54;;;;;;;31.90;17.42;;;0.10;2201.60;;;;;;5097017;28;20032;-66
2021/01/27 05:59:28;;;;;;;30.15;17.60;;;0.00;2201.60;;;;;;5097028;28;20294;-66
2021/01/27 06:02:06;;;;;;;31.45;17.73;;;12.90;2201.60;;;;;;5083934;28;20110;-66
2021/01/27 06:04:34;;;;;;;29.73;17.88;;;0.00;2201.60;;;;;;5095015;28;20024;-66
2021/01/27 06:07:07;;;;;;;33.67;18.02;;;12.90;2201.60;;;;;;5095397;28;20571;-65
2021/01/27 06:09:36;;;;;;;31.52;18.27;;;13.00;2201.60;;;;;;5095264;28;20085;-66
2021/01/27 06:12:06;;;;;;;;;;;13.00;2201.60;;;;;;5097858;28;20089;-66
2021/01/27 06:14:33;;;;;;;34.92;19.70;;;13.00;2201.60;;;;;;5099930;28;19995;-66
2021/01/27 06:17:16;;;;;;;34.97;20.95;;;13.00;2201.60;;;;;;5099699;28;20024;-66
2021/01/27 06:19:42;;;;;;;30.17;18.05;;;13.00;2201.60;;;;;;5100435;28;20031;-65
2021/01/27 06:22:30;;;;;;;35.10;19.33;;;13.00;2201.60;;;;;;5100949;28;20034;-65
2021/01/27 06:25:08;;;;;;;33.17;19.27;;;13.00;2201.60;;;;;;5099763;28;20356;-65
2021/01/27 06:27:59;;;;;;;35.60;18.90;;;13.10;2201.60;;;;;;5098879;28;20024;-66
2021/01/27 06:30:42;;;;;;;31.02;18.60;;;13.10;2201.60;;;;;;5099200;28;20024;-65
2021/01/27 06:33:37;;;;;;;35.33;19.85;;;13.00;2201.60;;;;;;5098767;28;20032;-66
2021/01/27 06:36:03;;;;;;;34.95;19.38;;;13.00;2201.60;;;;;;5099820;28;20024;-66
2021/01/27 06:38:34;;;;;;;34.10;20.45;;;13.00;2201.60;;;;;;5099869;28;20092;-66
2021/01/27 06:41:23;;;;;;;35.63;20.08;;;13.00;2201.60;;;;;;5100270;28;20031;-65
2021/01/27 06:44:01;;;;;;;34.25;20.75;;;12.90;2201.60;;;;;;5100170;28;20061;-66
2021/01/27 06:46:40;;;;;;;33.67;20.38;;;13.00;2201.60;;;;;;5099895;28;20146;-65
2021/01/27 06:49:08;;;;;;;;;;;12.90;2201.60;;;;;;5100943;28;20027;-66
2021/01/27 06:51:51;;;;;;;33.97;20.00;;;12.90;2201.60;;;;;;5099730;28;19908;-66
2021/01/27 06:54:52;;;;;;;44.85;21.52;;;12.90;2201.60;;;;;;5099818;28;20024;-66
2021/01/27 06:57:50;;;;;;;40.90;22.27;;;12.90;2201.60;;;;;;5100021;28;20020;-65
2021/01/27 07:00:49;;;;;;;38.20;22.10;;;0.00;2201.60;;;;;;5099711;28;20020;-66
2021/01/27 07:03:33;;;;;;;40.03;23.38;;;0.00;2201.60;;;;;;5100154;28;20028;-66
2021/01/27 07:06:05;;;;;;;39.85;22.95;;;0.00;2201.60;;;;;;5099696;28;20051;-66
2021/01/27 07:09:08;;;;;;;40.08;23.00;;;0.00;2201.60;;;;;;5099568;28;20031;-66
2021/01/27 07:11:44;;;;;;;41.42;22.70;;;0.10;2201.60;;;;;;5079755;28;20036;-66
2021/01/27 07:14:32;;;;;;;43.78;23.98;;;0.00;2201.60;;;;;;5100027;28;20023;-66
2021/01/27 07:17:01;;;;;;;38.67;22.90;;;0.00;2201.60;;;;;;5099632;28;20026;-66
2021/01/27 07:19:27;;;;;;;;;;;0.20;2201.60;;;;;;5099991;28;20020;-66
2021/01/27 07:22:26;;;;;;;43.50;23.52;;;0.20;2201.60;;;;;;5099222;28;19908;-65
2021/01/27 07:25:17;;;;;;;40.97;23.00;;;0.10;2201.60;;;;;;5098675;28;20378;-66
2021/01/27 07:28:11;;;;;;;37.70;22.90;;;0.10;2201.60;;;;;;5099743;28;20035;-66
2021/01/27 07:30:45;;;;;;;41.72;22.90;;;0.10;2201.60;;;;;;5094758;28;20031;-65
2021/01/27 07:33:18;;;;;;;42.85;24.38;;;0.00;2201.60;;;;;;5099495;28;20130;-65
2021/01/27 07:36:21;;;;;;;44.55;26.27;;;0.00;2201.60;;;;;;5098715;28;20020;-66
2021/01/27 07:38:49;;;;;;;52.78;25.13;;;0.00;2201.60;;;;;;5098932;28;20059;-66
2021/01/27 07:41:20;;;;;;;43.38;24.23;;;0.00;2201.60;;;;;;5098806;28;20473;-66
2021/01/27 07:44:05;;;;;;;43.95;25.10;;;0.00;2201.60;;;;;;5098866;28;20024;-67
2021/01/27 07:46:39;;;;;;;47.03;26.95;;;0.10;2201.60;;;;;;5099246;28;20027;-66
2021/01/27 07:49:06;;;;;;;44.03;23.77;;;0.10;2201.60;;;;;;5098719;28;20065;-66
2021/01/27 07:51:56;;;;;;;46.95;26.73;;;0.10;2201.60;;;;;;5098843;28;20085;-66
2021/01/27 07:54:35;;;;;;;51.58;26.80;;;0.10;2201.60;;;;;;5098664;28;20024;-66
2021/01/27 07:57:03;;;;;;;49.97;28.77;;;0.20;2201.60;;;;;;5098589;28;20027;-66
2021/01/27 07:59:38;;;;;;;52.80;29.15;;;0.30;2201.60;;;;;;5098992;28;20038;-66
2021/01/27 08:02:22;;;;;;;47.88;27.25;;;0.20;2201.60;;;;;;5098727;28;20030;-65
2021/01/27 08:04:55;;;;;;;41.00;23.73;;;0.10;2201.60;;;;;;5098658;28;20139;-66
2021/01/27 08:07:30;;;;;;;48.72;27.10;;;0.00;2201.60;;;;;;5098967;28;20360;-65
2021/01/27 08:10:08;;;;;;;49.95;28.08;;;0.00;2201.60;;;;;;5098920;28;20024;-66
2021/01/27 08:12:59;;;;;;;52.65;28.33;;;0.00;2201.60;;;;;;5098279;28;20028;-66
2021/01/27 08:15:25;;;;;;;52.67;28.50;;;0.00;2201.60;;;;;;5097390;28;20050;-66
2021/01/27 08:17:59;;;;;;;51.67;28.70;;;0.10;2201.60;;;;;;5096868;28;20402;-66
2021/01/27 08:20:42;;;;;;;58.22;29.77;;;0.00;2201.60;;;;;;5097492;28;20028;-66
2021/01/27 08:23:34;;;;;;;53.58;26.92;;;0.10;2201.60;;;;;;5098182;28;20028;-66
2021/01/27 08:26:01;;;;;;;50.45;27.00;;;0.30;2201.60;;;;;;5092276;28;20048;-66
2021/01/27 08:28:35;;;;;;;49.95;27.35;;;0.40;2201.60;;;;;;5098083;28;20027;-65
2021/01/27 08:31:10;;;;;;;44.67;25.45;;;0.40;2201.60;;;;;;5097987;28;20334;-65
2021/01/27 08:33:54;;;;;;;46.05;26.00;;;0.50;2201.60;;;;;;5097779;28;20421;-65
2021/01/27 08:36:29;;;;;;;40.72;23.70;;;0.60;2201.60;;;;;;5097246;28;20306;-65
2021/01/27 08:38:57;;;;;;;45.72;24.80;;;0.70;2201.60;;;;;;5097328;28;20020;-66
2021/01/27 08:41:44;;;;;;;43.88;24.83;;;0.80;2201.60;;;;;;5098329;28;20051;-66
2021/01/27 08:44:19;;;;;;;46.47;25.60;;;0.80;2201.60;;;;;;5098286;28;20110;-67
2021/01/27 08:46:52;;;;;;;42.33;23.52;;;0.80;2201.60;;;;;;5097317;28;20020;-66
2021/01/27 08:49:42;;;;;;;44.75;24.50;;;0.80;2201.60;;;;;;5098367;28;20177;-66
2021/01/27 08:52:11;;;;;;;44.53;24.98;;;0.60;2201.60;;;;;;5098098;28;20042;-66
2021/01/27 08:54:39;;;;;;;47.58;27.20;;;0.30;2201.60;;;;;;5097823;28;20055;-66
2021/01/27 08:57:33;;;;;;;41.95;24.70;;;0.40;2201.60;;;;;;5097160;28;20020;-66
2021/01/27 09:00:08;;;;;;;38.83;22.10;;;0.40;2201.60;;;;;;5097372;28;20028;-65
2021/01/27 09:02:43;;;;;;;37.38;23.20;;;0.50;2201.60;;;;;;5097403;28;20024;-65
2021/01/27 09:05:19;;;;;;;44.95;22.92;;;0.50;2201.60;;;;;;5097590;28;20090;-65
2021/01/27 09:07:55;;;;;;;36.20;21.77;;;0.60;2201.60;;;;;;5097635;28;20035;-65
2021/01/27 09:10:28;;;;;;;38.50;22.73;;;0.60;2201.60;;;;;;5097253;28;20341;-65
2021/01/27 09:12:54;;;;;;;35.55;22.00;;;0.70;2201.60;;;;;;5097410;28;20413;-66
2021/01/27 09:15:28;;;;;;;42.15;23.25;;;0.80;2201.60;;;;;;5097173;28;20024;-65
2021/01/27 09:17:56;;;;;;;40.63;22.38;;;0.80;2201.60;;;;;;5096507;28;20078;-66
2021/01/27 09:20:28;;;;;;;41.17;22.55;;;0.80;2201.60;;;;;;5095486;28;20044;-66
2021/01/27 09:23:04;;;;;;;39.20;23.27;;;0.80;2201.60;;;;;;5095186;28;20441;-65
2021/01/27 09:25:41;;;;;;;43.83;23.38;;;0.80;2201.60;;;;;;5096310;28;20024;-65
2021/01/27 09:28:09;;;;;;;41.13;23.58;;;0.60;2201.60;;;;;;5096581;28;20024;-65
2021/01/27 09:30:35;;;;;;;42.25;23.58;;;0.60;2201.60;;;;;;5096911;28;20353;-66
2021/01/27 09:33:30;;;;;;;41.22;24.02;;;0.60;2201.60;;;;;;5095565;28;20063;-66
2021/01/27 09:36:27;;;;;;;38.70;22.02;;;0.70;2201.60;;;;;;5094598;28;20046;-65
2021/01/27 09:38:55;;;;;;;39.35;22.20;;;0.90;2201.60;;;;;;5097293;28;20055;-66
2021/01/27 09:41:30;;;;;;;33.33;20.52;;;25.70;2201.60;;;;;;5097282;28;20051;-66
2021/01/27 09:43:57;;;;;;;33.17;20.10;;;25.80;2201.60;;;;;;5096324;28;20107;-65
2021/01/27 09:46:32;;;;;;;35.80;21.80;;;25.60;2201.60;;;;;;5097594;28;20370;-66
2021/01/27 09:49:07;;;;;;;40.17;21.98;;;25.80;2201.60;;;;;;5101673;28;20474;-65
2021/01/27 09:51:35;;;;;;;28.83;17.98;;;25.90;2201.60;;;;;;5101197;28;20028;-65
2021/01/27 09:54:02;;;;;;;34.45;20.77;;;26.00;2201.60;;;;;;5100650;28;20024;-65
2021/01/27 09:56:29;;;;;;;32.42;19.42;;;26.10;2201.60;;;;;;5101196;28;20024;-66
2021/01/27 09:58:57;;;;;;;30.75;18.60;;;26.20;2201.60;;;;;;5101275;28;20446;-66
2021/01/27 10:01:27;;;;;;;30.80;18.48;;;26.10;2201.60;;;;;;5098416;28;20327;-65
2021/01/27 10:04:06;;;;;;;38.22;22.70;;;26.20;2201.60;;;;;;5089801;28;20430;-66
2021/01/27 10:06:37;;;;;;;;;;;26.50;2201.60;;;;;;5090407;28;20135;-66
2021/01/27 10:09:14;;;;;;;33.47;16.08;;;51.20;2227.20;;;;;;5088847;28;19915;-66
2021/01/27 10:11:41;;;;;;;35.67;18.65;;;26.50;2201.60;;;;;;5086965;28;20032;-66
2021/01/27 10:14:24;;;;;;;29.83;17.83;;;26.40;2201.60;;;;;;5079917;28;20025;-66
2021/01/27 10:16:52;;;;;;;30.83;17.50;;;51.20;2227.20;;;;;;5080486;28;20024;-66
2021/01/27 10:19:25;;;;;;;28.33;18.77;;;51.20;2227.20;;;;;;5080395;28;20109;-66
2021/01/27 10:21:52;;;;;;;31.13;19.27;;;26.50;2201.60;;;;;;5079504;28;20131;-65
2021/01/27 10:24:44;;;;;;;31.42;19.17;;;51.30;2227.20;;;;;;5080009;28;20322;-66
2021/01/27 10:27:16;;;;;;;30.85;18.42;;;51.70;2227.20;;;;;;5077177;28;20043;-65
2021/01/27 10:29:42;;;;;;;27.42;16.65;;;51.80;2227.20;;;;;;5080290;28;20035;-65
2021/01/27 10:32:34;;;;;;;29.75;16.80;;;51.70;2227.20;;;;;;5080441;28;20032;-67
2021/01/27 10:35:01;;;;;;;30.70;18.08;;;51.40;2227.20;;;;;;5079817;28;20024;-66
2021/01/27 10:37:34;;;;;;;32.60;19.08;;;51.40;2227.20;;;;;;5092434;28;20028;-65
2021/01/27 10:40:25;;;;;;;32.97;17.73;;;26.50;2201.60;;;;;;5099872;28;20031;-65
2021/01/27 10:43:15;;;;;;;35.85;18.77;;;26.40;2201.60;;;;;;5099564;28;20028;-65
2021/01/27 10:45:43;;;;;;;37.17;20.73;;;26.20;2201.60;;;;;;5092394;28;20046;-64
2021/01/27 10:48:11;;;;;;;34.15;20.45;;;26.40;2201.60;;;;;;5099128;28;20024;-65
2021/01/27 10:50:45;;;;;;;;;;;51.20;2227.20;;;;;;5099769;28;20445;-65
2021/01/27 10:53:14;;;;;;;32.78;18.98;;;51.70;2227.20;;;;;;5098310;28;19961;-65
2021/01/27 10:55:44;;;;;;;27.33;17.38;;;51.90;2227.20;;;;;;5098727;28;20020;-65
2021/01/27 10:58:16;;;;;;;31.20;19.60;;;51.80;2227.20;;;;;;5098439;28;20430;-65
2021/01/27 11:00:45;;;;;;;30.77;19.02;;;52.00;2227.20;;;;;;5099614;28;20422;-65
2021/01/27 11:03:13;;;;;;;33.25;19.35;;;51.80;2227.20;;;;;;5099753;28;20074;-65
2021/01/27 11:05:40;;;;;;;32.97;20.27;;;51.50;2227.20;;;;;;5099423;28;20097;-65
2021/01/27 11:08:10;;;;;;;32.28;19.50;;;51.40;2227.20;;;;;;5099340;28;20345;-65
2021/01/27 11:10:36;;;;;;;35.70;21.38;;;51.60;2227.20;;;;;;5099348;28;20024;-65
2021/01/27 11:13:03;;;;;;;29.05;17.67;;;51.50;2227.20;;;;;;5099205;28;20314;-65
2021/01/27 11:15:29;;;;;;;24.85;15.57;;;51.40;2227.20;;;;;;5099272;28;20417;-66
2021/01/27 11:17:54;;;;;;;26.40;17.45;;;26.50;2201.60;;;;;;5099174;28;20027;-65
2021/01/27 11:20:23;;;;;;;31.13;18.83;;;26.40;2201.60;;;;;;5099344;28;20059;-65
2021/01/27 11:22:50;;;;;;;26.58;17.20;;;26.20;2201.60;;;;;;5099356;28;20088;-65
2021/01/27 11:25:20;;;;;;;29.60;17.77;;;26.10;2201.60;;;;;;5088390;28;20418;-63
2021/01/27 11:27:46;;;;;;;32.33;18.95;;;26.00;2201.60;;;;;;5091284;28;20028;-64
2021/01/27 11:30:14;;;;;;;33.70;19.92;;;25.80;2201.60;;;;;;5098357;28;20042;-63
2021/01/27 11:32:40;;;;;;;27.45;16.58;;;25.80;2201.60;;;;;;5099377;28;20032;-64
2021/01/27 11:35:06;;;;;;;25.38;15.30;;;25.70;2201.60;;;;;;5099513;28;20035;-63
2021/01/27 11:37:32;;;;;;;32.70;17.27;;;25.60;2201.60;;;;;;5098115;28;20049;-63
2021/01/27 11:39:58;;;;;;;30.33;16.17;;;25.80;2201.60;;;;;;5098856;28;20020;-63
2021/01/27 11:42:24;;;;;;;32.53;17.88;;;0.90;2201.60;;;;;;5098890;28;20449;-63
2021/01/27 11:44:50;;;;;;;36.17;20.27;;;0.90;2201.60;;;;;;5098415;28;20414;-63
2021/01/27 11:47:15;;;;;;;39.97;20.52;;;0.70;2201.60;;;;;;5099162;28;20329;-63
2021/01/27 11:49:45;;;;;;;40.58;21.67;;;0.80;2201.60;;;;;;5098807;28;20024;-63
2021/01/27 11:52:15;;;;;;;36.25;20.63;;;25.60;2201.60;;;;;;5098005;28;20047;-63
2021/01/27 11:54:41;;;;;;;35.35;18.77;;;25.60;2201.60;;;;;;5098794;28;20020;-64
2021/01/27 11:57:08;;;;;;;34.13;20.17;;;25.60;2201.60;;;;;;5098686;28;20081;-64
2021/01/27 11:59:34;;;;;;;32.92;18.95;;;25.80;2201.60;;;;;;5098428;28;20478;-64
2021/01/27 12:02:01;;;;;;;33.30;20.00;;;26.10;2201.60;;;;;;5098144;28;20024;-64
2021/01/27 12:04:26;;;;;;;30.75;18.88;;;26.50;2201.60;;;;;;5098223;28;20105;-63
2021/01/27 12:06:52;;;;;;;32.03;19.63;;;51.30;2227.20;;;;;;5098002;28;20453;-64
2021/01/27 12:09:18;;;;;;;29.40;17.15;;;52.00;2227.20;;;;;;5097950;28;20055;-64
2021/01/27 12:11:44;;;;;;;26.50;15.93;;;77.20;2227.20;;;;;;5097737;28;20077;-64
2021/01/27 12:14:10;;;;;;;26.33;15.70;;;52.10;2227.20;;;;;;5098232;28;20042;-64
2021/01/27 12:16:35;;;;;;;24.60;15.38;;;77.50;2227.20;;;;;;5098648;28;20081;-64
2021/01/27 12:19:02;;;;;;;21.48;13.48;;;77.50;2227.20;;;;;;5098241;28;20180;-64
2021/01/27 12:21:27;;;;;;;27.38;17.75;;;77.10;2227.20;;;;;;5095967;28;20480;-64
2021/01/27 12:23:53;;;;;;;25.50;15.38;;;76.80;2227.20;;;;;;5098230;28;20322;-64
2021/01/27 12:26:19;;;;;;;23.52;14.23;;;51.90;2227.20;;;;;;5097426;28;20475;-64
2021/01/27 12:28:45;;;;;;;21.55;13.60;;;51.90;2227.20;;;;;;5097852;28;20451;-64
2021/01/27 12:31:12;;;;;;;42.53;25.42;;;52.10;2227.20;;;;;;5098052;28;20405;-64
2021/01/27 12:33:39;;;;;;;25.42;14.65;;;76.80;2227.20;;;;;;5097408;28;20024;-64
2021/01/27 12:36:05;;;;;;;26.13;14.23;;;51.90;2227.20;;;;;;5097402;28;20131;-65
2021/01/27 12:38:31;;;;;;;25.80;14.48;;;51.70;2227.20;;;;;;5097775;28;20102;-64
2021/01/27 12:40:58;;;;;;;22.48;14.30;;;51.60;2227.20;;;;;;5097860;28;20065;-64
2021/01/27 12:43:24;;;;;;;24.50;14.40;;;51.50;2227.20;;;;;;5098147;28;20035;-64
2021/01/27 12:45:50;;;;;;;21.40;13.98;;;51.60;2227.20;;;;;;5098002;28;20024;-65